Johnsville, New York
Current Conditions -  °F | °C
As of 1:55 AM on Tuesday 21 Oct 2014 (Local Time) from KNY0 Reporting Station
Overcast Overcast  
Wind Chill: 41°   Ceiling: 11000
Heat Index: 44°   Visibility: 10mi
Dew Point: 36°   Wind: 5mph
Humidity: 74%   Direction: 60°ENE
Pressure: 29.91"   Gusts: NA
Location:  43.035°N, 74.6217°W
Report Text: KNY0 210555Z AUTO 06004KT 10SM SCT060 SCT070 OVC110 07/02 A2991 RMK AO2 T00650021 10070 20054 401051012
Loading
Personal Weather Stations






























Interactive Weather Map
Tropical Storm Tracking
New forecast layout! Learn more

10-Day Weather Forecast

Advertisements
Track Severe Weather on mobile